createdAt,value
2018-02-25T00:03:09.370Z,37.40
2018-02-25T00:08:11.112Z,37.30
2018-02-25T00:13:12.115Z,37.30
2018-02-25T00:18:13.107Z,37.90
2018-02-25T00:23:14.116Z,37.70
2018-02-25T00:28:15.855Z,37.80
2018-02-25T00:33:16.870Z,38.40
2018-02-25T00:38:17.872Z,38.30
2018-02-25T00:43:19.617Z,37.60
2018-02-25T00:48:20.617Z,38.00
2018-02-25T00:53:21.615Z,37.90
2018-02-25T00:58:22.631Z,38.70
2018-02-25T01:03:24.383Z,38.30
2018-02-25T01:08:25.396Z,38.30
2018-02-25T01:13:26.400Z,38.60
2018-02-25T01:18:28.158Z,38.10
2018-02-25T01:23:29.156Z,38.00
2018-02-25T01:28:30.160Z,38.40
2018-02-25T01:33:31.910Z,38.80
2018-02-25T01:38:32.911Z,38.70
2018-02-25T01:43:33.923Z,38.40
2018-02-25T01:48:35.659Z,38.60
2018-02-25T01:53:36.659Z,38.50
2018-02-25T01:58:37.644Z,39.00
2018-02-25T02:03:38.639Z,39.00
2018-02-25T02:08:40.425Z,39.20
2018-02-25T02:13:41.431Z,39.10
2018-02-25T02:18:42.415Z,39.60
2018-02-25T02:23:43.415Z,39.60
2018-02-25T02:28:45.168Z,39.40
2018-02-25T02:33:46.160Z,39.30
2018-02-25T02:38:47.167Z,39.70
2018-02-25T02:43:48.189Z,39.70
2018-02-25T02:48:49.204Z,39.90
2018-02-25T02:53:50.211Z,40.00
2018-02-25T02:58:51.195Z,40.30
2018-02-25T03:03:52.219Z,40.60
2018-02-25T03:08:53.248Z,41.00
2018-02-25T03:13:54.243Z,41.40
2018-02-25T03:18:55.372Z,41.70
2018-02-25T03:23:56.368Z,41.50
2018-02-25T03:28:57.375Z,42.10
2018-02-25T03:33:58.372Z,42.30
2018-02-25T03:38:59.382Z,42.50
2018-02-25T03:44:01.140Z,42.60
2018-02-25T03:49:02.132Z,42.50
2018-02-25T03:54:03.138Z,43.10
2018-02-25T03:59:04.136Z,43.30
2018-02-25T04:04:05.194Z,43.50
2018-02-25T04:09:06.189Z,43.50
2018-02-25T04:14:07.919Z,44.00
2018-02-25T04:19:08.936Z,43.50
2018-02-25T04:24:09.940Z,43.40
2018-02-25T04:29:10.939Z,43.80
2018-02-25T04:34:12.679Z,44.10
2018-02-25T04:39:13.679Z,44.10
2018-02-25T04:44:14.715Z,43.80
2018-02-25T04:49:16.448Z,43.70
2018-02-25T04:54:18.240Z,44.40
2018-02-25T04:59:19.239Z,43.90
2018-02-25T05:04:20.265Z,44.20
2018-02-25T05:09:21.276Z,44.10
2018-02-25T05:14:22.288Z,44.80
2018-02-25T05:19:23.287Z,44.90
2018-02-25T05:24:24.299Z,45.00
2018-02-25T05:29:25.306Z,45.10
2018-02-25T05:34:26.309Z,45.30
2018-02-25T05:39:27.307Z,45.70
2018-02-25T05:44:28.326Z,46.50
2018-02-25T05:49:29.316Z,45.80
2018-02-25T05:54:31.060Z,45.90
2018-02-25T05:59:32.067Z,45.90
2018-02-25T06:04:33.066Z,46.10
2018-02-25T06:09:34.071Z,46.40
2018-02-25T06:14:35.798Z,46.40
2018-02-25T06:19:36.790Z,46.50
2018-02-25T06:24:37.778Z,46.70
2018-02-25T06:29:38.796Z,46.80
2018-02-25T06:34:39.817Z,47.00
2018-02-25T06:39:41.560Z,47.20
2018-02-25T06:44:42.573Z,47.20
2018-02-25T06:49:43.616Z,46.50
2018-02-25T06:54:44.617Z,45.40
2018-02-25T06:59:45.623Z,43.80
2018-02-25T07:04:46.637Z,43.10
2018-02-25T07:09:47.646Z,41.30
2018-02-25T07:14:49.461Z,38.30
2018-02-25T07:19:50.636Z,38.30
2018-02-25T07:24:51.747Z,38.00
2018-02-25T07:29:52.835Z,37.30
2018-02-25T07:34:53.878Z,36.00
2018-02-25T07:39:55.122Z,35.40
2018-02-25T07:44:56.338Z,35.90
2018-02-25T07:49:57.331Z,33.70
2018-02-25T07:54:58.341Z,33.70
2018-02-25T07:59:59.417Z,32.90
2018-02-25T08:05:01.216Z,30.80
2018-02-25T08:10:02.245Z,30.70
2018-02-25T08:15:03.263Z,32.70
2018-02-25T08:20:04.267Z,30.00
2018-02-25T08:25:05.996Z,28.30
2018-02-25T08:30:06.996Z,28.20
2018-02-25T08:35:08.001Z,28.00
2018-02-25T08:40:09.000Z,28.20
2018-02-25T08:45:10.008Z,28.40
2018-02-25T08:50:11.043Z,27.20
2018-02-25T08:55:12.019Z,25.70
2018-02-25T09:00:13.032Z,26.80
2018-02-25T09:05:16.168Z,23.60
2018-02-25T09:10:19.079Z,23.50
2018-02-25T09:15:20.184Z,22.50
2018-02-25T09:20:21.920Z,21.10
2018-02-25T09:25:22.970Z,21.00
2018-02-25T09:30:23.914Z,23.00
2018-02-25T09:35:24.932Z,21.10
2018-02-25T09:40:26.683Z,21.00
2018-02-25T09:45:27.691Z,21.00
2018-02-25T09:50:28.691Z,19.60
2018-02-25T09:55:29.832Z,19.30
2018-02-25T10:00:30.871Z,18.30
2018-02-25T10:05:32.620Z,15.80
2018-02-25T10:10:33.627Z,15.70
2018-02-25T10:15:34.649Z,15.80
2018-02-25T10:20:35.689Z,15.20
2018-02-25T10:25:36.837Z,14.70
2018-02-25T10:30:37.847Z,17.20
2018-02-25T10:35:38.868Z,17.70
2018-02-25T10:40:40.616Z,18.40
2018-02-25T10:45:45.766Z,18.40
2018-02-25T10:50:47.172Z,18.80
2018-02-25T10:55:48.176Z,19.80
2018-02-25T11:00:55.407Z,19.60
2018-02-25T11:05:56.411Z,18.90
2018-02-25T11:10:57.395Z,19.10
2018-02-25T11:15:58.407Z,19.10
2018-02-25T11:21:00.148Z,19.40
2018-02-25T11:26:01.198Z,19.50
2018-02-25T11:31:02.291Z,19.60
2018-02-25T11:36:03.382Z,19.40
2018-02-25T11:41:04.392Z,19.60
2018-02-25T11:46:05.387Z,19.00
2018-02-25T11:51:06.442Z,20.00
2018-02-25T11:56:07.383Z,20.00
2018-02-25T12:01:08.387Z,19.60
2018-02-25T12:06:10.095Z,20.30
2018-02-25T12:11:11.104Z,19.80
2018-02-25T12:16:12.147Z,37.30
2018-02-25T12:21:13.931Z,18.90
2018-02-25T12:26:15.671Z,19.60
2018-02-25T12:31:16.663Z,19.60
2018-02-25T12:36:17.701Z,19.00
2018-02-25T12:41:19.448Z,18.10
2018-02-25T12:46:20.426Z,18.10
2018-02-25T12:51:21.413Z,18.30
2018-02-25T12:56:22.402Z,18.50
2018-02-25T13:01:23.421Z,18.70
2018-02-25T13:06:24.427Z,18.60
2018-02-25T13:11:25.428Z,18.50
2018-02-25T13:16:26.430Z,18.70
2018-02-25T13:21:27.436Z,18.70
2018-02-25T13:26:28.439Z,17.20
2018-02-25T13:31:30.225Z,17.50
2018-02-25T13:36:31.232Z,17.40
2018-02-25T13:41:32.966Z,17.20
2018-02-25T13:46:33.964Z,17.10
2018-02-25T13:51:34.976Z,17.10
2018-02-25T13:56:36.155Z,17.00
2018-02-25T14:01:37.211Z,16.30
2018-02-25T14:06:38.245Z,16.80
2018-02-25T14:11:39.976Z,17.10
2018-02-25T14:16:40.972Z,17.10
2018-02-25T14:21:41.983Z,17.40
2018-02-25T14:26:43.018Z,14.90
2018-02-25T14:31:44.027Z,15.80
2018-02-25T14:36:45.050Z,16.70
2018-02-25T14:41:46.779Z,18.10
2018-02-25T14:46:47.796Z,17.40
2018-02-25T14:51:48.837Z,17.50
2018-02-25T14:56:50.600Z,17.00
2018-02-25T15:01:51.616Z,17.00
2018-02-25T15:06:53.428Z,17.10
2018-02-25T15:11:54.436Z,17.00
2018-02-25T15:16:55.436Z,16.70
2018-02-25T15:21:56.512Z,17.20
2018-02-25T15:26:57.539Z,17.30
2018-02-25T15:31:59.570Z,17.60
2018-02-25T15:37:00.735Z,17.60
2018-02-25T15:42:01.828Z,18.00
2018-02-25T15:47:03.769Z,17.80
2018-02-25T15:52:04.798Z,17.70
2018-02-25T15:57:06.754Z,17.80
2018-02-25T16:02:07.887Z,17.80
2018-02-25T16:07:08.947Z,17.60
2018-02-25T16:12:09.959Z,17.90
2018-02-25T16:17:11.013Z,17.70
2018-02-25T16:22:12.328Z,18.00
2018-02-25T16:27:14.194Z,17.90
2018-02-25T16:32:15.238Z,17.90
2018-02-25T16:37:16.989Z,17.90
2018-02-25T16:42:17.999Z,17.90
2018-02-25T16:47:19.236Z,17.70
2018-02-25T16:52:20.523Z,17.80
2018-02-25T16:57:21.813Z,18.60
2018-02-25T17:02:22.825Z,18.70
2018-02-25T17:07:24.124Z,19.20
2018-02-25T17:12:25.304Z,19.50
2018-02-25T17:17:26.322Z,19.40
2018-02-25T17:22:28.146Z,19.30
2018-02-25T17:27:29.328Z,19.30
2018-02-25T17:32:30.596Z,19.80
2018-02-25T17:37:32.343Z,20.00
2018-02-25T17:42:33.346Z,20.00
2018-02-25T17:47:34.330Z,20.00
2018-02-25T17:52:42.314Z,20.00
2018-02-25T17:57:43.323Z,20.30
2018-02-25T18:02:44.336Z,20.20
2018-02-25T18:07:45.327Z,20.00
2018-02-25T18:12:46.363Z,20.40
2018-02-25T18:17:47.347Z,20.40
2018-02-25T18:22:48.359Z,20.60
2018-02-25T18:27:49.357Z,21.10
2018-02-25T18:32:50.388Z,22.20
2018-02-25T18:37:51.647Z,22.30
2018-02-25T18:42:52.799Z,23.20
2018-02-25T18:47:53.803Z,23.30
2018-02-25T18:52:54.859Z,24.20
2018-02-25T18:57:55.984Z,25.30
2018-02-25T19:02:57.151Z,26.10
2018-02-25T19:07:58.315Z,26.60
2018-02-25T19:12:59.580Z,26.80
2018-02-25T19:23:29.864Z,27.40
2018-02-25T19:28:30.934Z,27.90
2018-02-25T19:33:32.069Z,27.90
2018-02-25T19:44:12.879Z,28.00
2018-02-25T19:49:13.916Z,28.10
2018-02-25T19:54:15.642Z,28.60
2018-02-25T19:59:16.639Z,28.60
2018-02-25T20:04:17.646Z,28.30
2018-02-25T20:09:18.664Z,28.80
2018-02-25T20:14:20.392Z,29.10
2018-02-25T20:19:21.379Z,29.10
2018-02-25T20:24:22.461Z,28.80
2018-02-25T20:29:24.197Z,28.50
2018-02-25T20:34:25.212Z,28.60
2018-02-25T20:39:26.968Z,29.20
2018-02-25T20:44:28.123Z,29.10
2018-02-25T20:49:29.105Z,29.30
2018-02-25T20:54:30.102Z,29.10
2018-02-25T20:59:31.115Z,29.70
2018-02-25T21:04:32.119Z,30.10
2018-02-25T21:09:33.114Z,30.20
2018-02-25T21:14:34.848Z,29.80
2018-02-25T21:19:35.848Z,29.80
2018-02-25T21:24:36.844Z,29.50
2018-02-25T21:29:37.848Z,30.70
2018-02-25T21:34:38.854Z,30.40
2018-02-25T21:39:40.590Z,30.40
2018-02-25T21:44:41.619Z,30.40
2018-02-25T21:49:42.629Z,30.60
2018-02-25T21:54:49.671Z,30.40
2018-02-25T21:59:56.924Z,30.80
2018-02-25T22:04:57.930Z,30.70
2018-02-25T22:09:58.928Z,31.20
2018-02-25T22:14:59.920Z,30.70
2018-02-25T22:20:01.680Z,31.00
2018-02-25T22:25:02.692Z,30.90
2018-02-25T22:30:04.428Z,31.20
2018-02-25T22:35:05.431Z,31.10
2018-02-25T22:40:07.208Z,31.10
2018-02-25T22:45:08.211Z,31.10
2018-02-25T22:50:09.200Z,31.40
2018-02-25T22:55:10.172Z,31.50
2018-02-25T23:00:11.180Z,31.80
2018-02-25T23:05:12.183Z,32.10
2018-02-25T23:10:13.184Z,32.10
2018-02-25T23:15:14.919Z,32.70
2018-02-25T23:20:15.908Z,32.60
2018-02-25T23:25:16.899Z,32.40
2018-02-25T23:30:17.921Z,32.70
2018-02-25T23:35:19.669Z,33.40
2018-02-25T23:40:20.678Z,33.40
2018-02-25T23:45:21.681Z,33.10
2018-02-25T23:50:22.683Z,33.40
2018-02-25T23:55:23.696Z,33.70
